Time;durP1;ratioP1;P1;durP2;ratioP2;P2;SDS_P1;SDS_P2;PMS_P1;PMS_P2;Temp;Humidity;BMP_temperature;BMP_pressure;BME280_temperature;BME280_humidity;BME280_pressure;Samples;Min_cycle;Max_cycle;Signal;HPM_P1;HPM_P2
2021/05/29 00:01:49;;;;;;;10.80;6.23;;;10.50;99.90;;;;;;5047844;28;20236;-81
2021/05/29 00:04:17;;;;;;;10.93;6.27;;;10.50;99.90;;;;;;5047955;28;20244;-81
2021/05/29 00:06:45;;;;;;;10.70;6.10;;;10.60;99.90;;;;;;5074467;28;20242;-80
2021/05/29 00:09:14;;;;;;;9.40;6.20;;;10.60;99.90;;;;;;5055355;28;20317;-81
2021/05/29 00:11:42;;;;;;;9.73;6.00;;;10.60;99.90;;;;;;5048068;28;20235;-81
2021/05/29 00:14:10;;;;;;;8.40;5.90;;;10.60;99.90;;;;;;5047923;28;20256;-81
2021/05/29 00:16:37;;;;;;;8.83;6.57;;;10.60;99.90;;;;;;5048912;28;20576;-81
2021/05/29 00:19:06;;;;;;;8.97;6.60;;;10.50;99.90;;;;;;5046830;28;20244;-81
2021/05/29 00:21:33;;;;;;;8.37;6.27;;;10.50;99.90;;;;;;5052517;28;20275;-81
2021/05/29 00:24:02;;;;;;;8.30;6.00;;;10.50;99.90;;;;;;5051623;28;20782;-80
2021/05/29 00:26:30;;;;;;;10.23;5.97;;;10.40;99.90;;;;;;5051965;28;20234;-81
2021/05/29 00:28:58;;;;;;;8.97;6.07;;;10.40;99.90;;;;;;5060960;28;20244;-81
2021/05/29 00:31:26;;;;;;;8.57;5.90;;;10.40;99.90;;;;;;5075716;28;20755;-81
2021/05/29 00:33:54;;;;;;;7.90;5.97;;;10.40;99.90;;;;;;5047964;28;20704;-81
2021/05/29 00:36:22;;;;;;;7.80;6.40;;;10.30;99.90;;;;;;5052570;28;20255;-81
2021/05/29 00:38:50;;;;;;;6.97;6.00;;;10.40;99.90;;;;;;5048243;28;20250;-81
2021/05/29 00:41:19;;;;;;;7.80;5.50;;;10.30;99.90;;;;;;5050356;28;20708;-81
2021/05/29 00:43:47;;;;;;;6.83;6.13;;;10.30;99.90;;;;;;5063273;28;20239;-81
2021/05/29 00:46:15;;;;;;;8.13;5.77;;;10.30;99.90;;;;;;5047815;28;20769;-81
2021/05/29 00:48:43;;;;;;;7.13;5.60;;;10.30;99.90;;;;;;5048433;28;20713;-81
2021/05/29 00:51:12;;;;;;;8.33;6.03;;;10.40;99.90;;;;;;5049345;28;20255;-81
2021/05/29 00:53:40;;;;;;;7.07;5.97;;;10.40;99.90;;;;;;5047645;28;20246;-81
2021/05/29 00:56:08;;;;;;;7.10;6.20;;;10.30;99.90;;;;;;5053371;28;20229;-82
2021/05/29 00:58:36;;;;;;;7.10;5.70;;;10.30;99.90;;;;;;5067831;28;20252;-81
2021/05/29 01:01:06;;;;;;;9.07;6.00;;;10.30;99.90;;;;;;5050668;28;20223;-81
2021/05/29 01:03:36;;;;;;;8.57;6.00;;;10.30;99.90;;;;;;5047356;28;20960;-81
2021/05/29 01:06:05;;;;;;;7.83;5.97;;;10.30;99.90;;;;;;5033243;28;20239;-81
2021/05/29 01:08:33;;;;;;;8.17;6.07;;;10.30;99.90;;;;;;5040969;28;20264;-81
2021/05/29 01:11:01;;;;;;;7.87;5.93;;;10.30;99.90;;;;;;5033008;28;20223;-81
2021/05/29 01:13:31;;;;;;;9.43;5.90;;;10.30;99.90;;;;;;5046800;28;20229;-82
2021/05/29 01:16:04;;;;;;;10.37;6.00;;;10.30;99.90;;;;;;5052025;28;20231;-81
2021/05/29 01:18:33;;;;;;;6.90;6.13;;;10.30;99.90;;;;;;5059200;28;20582;-81
2021/05/29 01:21:02;;;;;;;8.67;6.03;;;10.30;99.90;;;;;;5050344;28;20235;-82
2021/05/29 01:23:32;;;;;;;11.17;6.60;;;10.30;99.90;;;;;;5062504;28;20663;-82
2021/05/29 01:26:00;;;;;;;9.90;6.57;;;10.30;99.90;;;;;;5056138;28;20234;-81
2021/05/29 01:28:29;;;;;;;8.47;5.83;;;10.30;99.90;;;;;;5043938;28;20232;-81
2021/05/29 01:31:01;;;;;;;9.13;6.37;;;10.40;99.90;;;;;;5051570;28;20263;-81
2021/05/29 01:33:30;;;;;;;7.57;5.47;;;10.40;99.90;;;;;;5062893;28;20324;-81
2021/05/29 01:36:00;;;;;;;11.40;6.53;;;10.40;99.90;;;;;;5062919;28;20693;-82
2021/05/29 01:38:28;;;;;;;8.60;6.27;;;10.30;99.90;;;;;;5031734;28;20237;-82
2021/05/29 01:41:00;;;;;;;9.17;6.33;;;10.30;99.90;;;;;;5046893;28;20682;-82
2021/05/29 01:43:29;;;;;;;9.33;6.00;;;10.30;99.90;;;;;;5042695;28;20792;-82
2021/05/29 01:45:58;;;;;;;9.53;6.40;;;10.30;99.90;;;;;;5051124;28;20240;-81
2021/05/29 01:48:32;;;;;;;10.40;6.60;;;10.30;99.90;;;;;;5051304;28;20257;-81
2021/05/29 01:51:02;;;;;;;9.40;5.93;;;10.30;99.90;;;;;;5055488;28;20228;-81
2021/05/29 01:53:30;;;;;;;11.40;7.07;;;10.30;99.90;;;;;;5051012;28;20233;-82
2021/05/29 01:56:00;;;;;;;9.73;7.47;;;10.30;99.90;;;;;;5051338;28;20666;-82
2021/05/29 01:58:28;;;;;;;10.50;7.33;;;10.30;99.90;;;;;;5051367;28;20257;-82
2021/05/29 02:00:56;;;;;;;8.43;6.87;;;10.30;99.90;;;;;;5048016;28;20703;-82
2021/05/29 02:03:24;;;;;;;9.37;6.83;;;10.30;99.90;;;;;;5050443;28;20248;-81
2021/05/29 02:05:52;;;;;;;10.43;7.27;;;10.30;99.90;;;;;;5054057;28;20235;-81
2021/05/29 02:08:20;;;;;;;8.53;7.40;;;10.30;99.90;;;;;;5071041;28;20231;-81
2021/05/29 02:10:48;;;;;;;10.10;7.83;;;10.30;99.90;;;;;;5062531;28;20711;-81
2021/05/29 02:13:24;;;;;;;8.73;6.93;;;10.20;99.90;;;;;;5070596;28;20266;-82
2021/05/29 02:15:53;;;;;;;10.70;7.37;;;10.30;99.90;;;;;;5059572;28;20247;-81
2021/05/29 02:18:21;;;;;;;9.93;7.93;;;10.30;99.90;;;;;;5057603;28;20242;-81
2021/05/29 02:20:52;;;;;;;12.27;7.53;;;10.30;99.90;;;;;;5053651;28;20731;-81
2021/05/29 02:23:21;;;;;;;10.67;7.77;;;10.30;99.90;;;;;;5055993;28;20633;-81
2021/05/29 02:25:50;;;;;;;10.97;7.57;;;10.30;99.90;;;;;;5069060;28;20331;-81
2021/05/29 02:28:19;;;;;;;12.03;7.97;;;10.30;99.90;;;;;;5050641;28;20748;-81
2021/05/29 02:30:48;;;;;;;10.93;7.13;;;10.30;99.90;;;;;;5054972;28;20240;-81
2021/05/29 02:33:17;;;;;;;8.07;6.80;;;10.30;99.90;;;;;;5060106;28;20696;-81
2021/05/29 02:35:45;;;;;;;11.80;7.73;;;10.30;99.90;;;;;;5052465;28;20314;-81
2021/05/29 02:38:13;;;;;;;11.23;7.40;;;10.20;99.90;;;;;;5069742;28;20229;-81
2021/05/29 02:40:41;;;;;;;9.73;7.33;;;10.20;99.90;;;;;;5061768;28;20284;-82
2021/05/29 02:43:09;;;;;;;12.33;7.53;;;10.30;99.90;;;;;;5060365;28;20244;-81
2021/05/29 02:45:39;;;;;;;11.37;8.17;;;10.30;99.90;;;;;;5050143;28;20656;-81
2021/05/29 02:48:09;;;;;;;10.60;7.27;;;10.30;99.90;;;;;;5045977;28;20240;-81
2021/05/29 02:50:39;;;;;;;11.60;7.67;;;10.30;99.90;;;;;;5039248;28;20290;-81
2021/05/29 02:53:07;;;;;;;10.47;7.10;;;10.40;99.90;;;;;;5049904;28;20697;-81
2021/05/29 02:55:37;;;;;;;12.63;7.70;;;10.30;99.90;;;;;;5050691;28;20594;-81
2021/05/29 02:58:05;;;;;;;9.67;6.87;;;10.20;99.90;;;;;;5069971;28;20268;-81
2021/05/29 03:00:36;;;;;;;12.03;7.87;;;10.30;99.90;;;;;;5065211;28;20241;-81
2021/05/29 03:03:07;;;;;;;12.43;7.80;;;10.30;99.90;;;;;;5049347;28;20259;-81
2021/05/29 03:05:36;;;;;;;12.50;7.17;;;10.30;99.90;;;;;;5049122;28;20230;-81
2021/05/29 03:08:05;;;;;;;10.13;7.07;;;10.30;99.90;;;;;;5065037;28;20240;-81
2021/05/29 03:10:33;;;;;;;10.93;7.30;;;10.30;99.90;;;;;;5049705;28;20336;-81
2021/05/29 03:13:02;;;;;;;9.60;6.70;;;10.30;99.90;;;;;;5084860;28;20293;-81
2021/05/29 03:15:30;;;;;;;9.10;6.80;;;10.30;99.90;;;;;;5057252;28;20319;-82
2021/05/29 03:17:58;;;;;;;11.87;7.20;;;10.40;99.90;;;;;;5049781;28;20283;-81
2021/05/29 03:20:28;;;;;;;9.97;7.30;;;10.40;99.90;;;;;;5052826;28;20248;-81
2021/05/29 03:22:57;;;;;;;10.57;6.47;;;10.40;99.90;;;;;;5060162;28;20245;-81
2021/05/29 03:25:25;;;;;;;11.20;6.77;;;10.40;99.90;;;;;;5049054;28;20236;-81
2021/05/29 03:27:53;;;;;;;10.57;7.63;;;10.40;99.90;;;;;;5048871;28;20287;-81
2021/05/29 03:30:25;;;;;;;12.80;7.80;;;10.40;99.90;;;;;;5050595;28;20283;-81
2021/05/29 03:32:53;;;;;;;12.63;8.13;;;10.30;99.90;;;;;;5049387;28;20312;-81
2021/05/29 03:35:21;;;;;;;10.23;7.50;;;10.30;99.90;;;;;;5049627;28;20237;-81
2021/05/29 03:37:49;;;;;;;9.73;7.30;;;10.30;99.90;;;;;;5048929;28;20236;-81
2021/05/29 03:40:18;;;;;;;9.47;6.87;;;10.20;99.90;;;;;;5033344;28;20230;-81
2021/05/29 03:42:46;;;;;;;12.13;7.73;;;10.20;99.90;;;;;;5047708;28;20626;-81
2021/05/29 03:45:16;;;;;;;10.90;7.50;;;10.30;99.90;;;;;;5049059;28;20705;-81
2021/05/29 03:47:45;;;;;;;11.53;7.47;;;10.30;99.90;;;;;;5050167;28;20754;-81
2021/05/29 03:50:16;;;;;;;10.40;8.30;;;10.30;99.90;;;;;;5049074;28;20259;-82
2021/05/29 03:52:44;;;;;;;9.83;7.23;;;10.30;99.90;;;;;;5048982;28;20252;-81
2021/05/29 03:55:14;;;;;;;11.20;7.23;;;10.30;99.90;;;;;;5048289;28;20624;-81
2021/05/29 03:57:43;;;;;;;9.33;7.03;;;10.40;99.90;;;;;;5067229;28;20233;-81
2021/05/29 04:00:13;;;;;;;12.30;8.40;;;10.40;99.90;;;;;;5048093;28;20259;-81
2021/05/29 04:02:42;;;;;;;9.13;7.40;;;10.30;99.90;;;;;;5052658;28;20245;-81
2021/05/29 04:05:12;;;;;;;12.90;8.10;;;10.40;99.90;;;;;;5046913;28;20247;-81
2021/05/29 04:07:40;;;;;;;13.20;8.03;;;10.30;99.90;;;;;;5053428;28;20246;-81
2021/05/29 04:10:09;;;;;;;9.93;7.27;;;10.30;99.90;;;;;;5062930;28;20226;-81
2021/05/29 04:12:37;;;;;;;11.17;7.00;;;10.30;99.90;;;;;;5048494;28;20706;-80
2021/05/29 04:15:10;;;;;;;9.57;6.83;;;10.30;99.90;;;;;;5048762;28;20228;-81
2021/05/29 04:17:38;;;;;;;10.37;7.17;;;10.40;99.90;;;;;;5055385;28;20245;-80
2021/05/29 04:20:07;;;;;;;10.37;7.40;;;10.30;99.90;;;;;;5050746;28;20233;-81
2021/05/29 04:22:35;;;;;;;9.93;7.47;;;10.30;99.90;;;;;;5048500;28;20706;-81
2021/05/29 04:25:04;;;;;;;11.37;7.40;;;10.30;99.90;;;;;;5048431;28;20233;-81
2021/05/29 04:27:32;;;;;;;9.87;7.33;;;10.30;99.90;;;;;;5065251;28;20277;-81
2021/05/29 04:30:00;;;;;;;11.33;6.73;;;10.30;99.90;;;;;;5063144;28;20723;-81
2021/05/29 04:32:28;;;;;;;10.90;7.07;;;10.30;99.90;;;;;;5047431;28;20246;-81
2021/05/29 04:34:57;;;;;;;11.30;6.67;;;10.30;99.90;;;;;;5048721;28;20280;-81
2021/05/29 04:37:25;;;;;;;9.73;7.03;;;10.30;99.90;;;;;;5048354;28;20238;-81
2021/05/29 04:39:53;;;;;;;12.03;7.27;;;10.40;99.90;;;;;;5048335;28;20231;-81
2021/05/29 04:42:21;;;;;;;8.20;6.43;;;10.30;99.90;;;;;;5048095;28;20241;-81
2021/05/29 04:44:49;;;;;;;9.73;6.43;;;10.30;99.90;;;;;;5048130;28;20239;-81
2021/05/29 04:47:17;;;;;;;9.13;6.17;;;10.30;99.90;;;;;;5062864;28;20232;-80
2021/05/29 04:49:46;;;;;;;9.27;6.03;;;10.30;99.90;;;;;;5066255;28;20271;-81
2021/05/29 04:52:13;;;;;;;8.40;5.90;;;10.40;99.90;;;;;;5055248;28;20235;-81
2021/05/29 04:54:41;;;;;;;10.87;6.17;;;10.30;99.90;;;;;;5047661;28;20266;-81
2021/05/29 04:57:09;;;;;;;11.47;6.63;;;10.30;99.90;;;;;;5062038;28;20241;-80
2021/05/29 04:59:37;;;;;;;9.63;6.23;;;10.30;99.90;;;;;;5046434;28;20327;-80
2021/05/29 05:02:07;;;;;;;10.63;6.50;;;10.30;99.90;;;;;;5047557;28;20248;-81
2021/05/29 05:04:35;;;;;;;8.20;5.80;;;10.30;99.90;;;;;;5066585;28;20330;-80
2021/05/29 05:07:04;;;;;;;8.63;5.77;;;10.40;99.90;;;;;;5051573;28;20248;-81
2021/05/29 05:09:32;;;;;;;10.00;6.53;;;10.40;99.90;;;;;;5052316;28;20325;-81
2021/05/29 05:12:00;;;;;;;10.47;6.40;;;10.40;99.90;;;;;;5051531;28;20255;-81
2021/05/29 05:14:27;;;;;;;8.70;6.53;;;10.40;99.90;;;;;;5047159;28;20259;-80
2021/05/29 05:16:55;;;;;;;10.63;7.63;;;10.40;99.90;;;;;;5061059;28;20235;-81
2021/05/29 05:19:23;;;;;;;9.37;7.20;;;10.50;99.90;;;;;;5051557;28;20241;-81
2021/05/29 05:21:51;;;;;;;9.17;6.83;;;10.50;99.90;;;;;;5052238;28;20253;-80
2021/05/29 05:24:20;;;;;;;12.80;7.43;;;10.50;99.90;;;;;;5051466;28;20236;-81
2021/05/29 05:26:48;;;;;;;11.87;7.73;;;10.50;99.90;;;;;;5051812;28;20320;-81
2021/05/29 05:29:16;;;;;;;11.00;7.83;;;10.50;99.90;;;;;;5051543;28;20619;-81
2021/05/29 05:31:44;;;;;;;10.00;6.93;;;10.50;99.90;;;;;;5054703;28;20296;-81
2021/05/29 05:34:12;;;;;;;12.57;7.70;;;10.50;99.90;;;;;;5051883;28;20244;-81
2021/05/29 05:36:41;;;;;;;12.80;8.10;;;10.60;99.90;;;;;;5051105;28;20351;-81
2021/05/29 05:39:10;;;;;;;12.27;7.83;;;10.60;99.90;;;;;;5063595;28;20244;-82
2021/05/29 05:41:39;;;;;;;11.77;7.83;;;10.50;99.90;;;;;;5057936;28;20248;-82
2021/05/29 05:44:08;;;;;;;9.17;7.53;;;10.50;99.90;;;;;;5052672;28;20764;-79
2021/05/29 05:46:37;;;;;;;10.03;6.60;;;10.50;99.90;;;;;;5060452;28;20808;-79
2021/05/29 05:49:06;;;;;;;9.80;7.43;;;10.50;99.90;;;;;;5064154;28;20241;-79
2021/05/29 05:51:34;;;;;;;10.20;7.10;;;10.50;99.90;;;;;;5052956;28;20804;-79
2021/05/29 05:54:03;;;;;;;10.97;7.20;;;10.50;99.90;;;;;;5050899;28;20235;-79
2021/05/29 05:56:31;;;;;;;12.17;7.20;;;10.50;99.90;;;;;;5051433;28;20259;-80
2021/05/29 05:59:01;;;;;;;13.10;7.53;;;10.50;99.90;;;;;;5051070;28;20240;-79
2021/05/29 06:01:30;;;;;;;10.20;7.57;;;10.50;99.90;;;;;;5048753;28;20320;-79
2021/05/29 06:03:59;;;;;;;8.70;6.87;;;10.50;99.90;;;;;;5050502;28;20241;-79
2021/05/29 06:06:27;;;;;;;7.80;6.37;;;10.50;99.90;;;;;;5055501;28;20251;-78
2021/05/29 06:08:55;;;;;;;9.63;6.57;;;10.60;99.90;;;;;;5050120;28;20232;-78
2021/05/29 06:11:23;;;;;;;11.53;6.90;;;10.70;99.90;;;;;;5051153;28;20319;-79
2021/05/29 06:19:26;;;;;;;11.37;6.93;;;10.60;99.90;;;;;;5049376;28;20236;-79
2021/05/29 06:21:55;;;;;;;10.83;6.73;;;10.60;99.90;;;;;;5045092;28;20243;-79
2021/05/29 06:24:25;;;;;;;11.30;6.90;;;10.70;99.90;;;;;;5049303;28;20640;-78
2021/05/29 06:26:53;;;;;;;13.63;6.87;;;10.70;99.90;;;;;;5050079;28;20272;-79
2021/05/29 06:29:21;;;;;;;9.33;6.57;;;10.70;99.90;;;;;;5062040;28;20740;-78
2021/05/29 06:31:50;;;;;;;9.27;6.47;;;10.70;99.90;;;;;;5049080;28;20232;-79
2021/05/29 06:34:19;;;;;;;10.63;7.13;;;10.80;99.90;;;;;;5049996;28;20318;-78
2021/05/29 06:36:47;;;;;;;11.03;7.40;;;10.80;99.90;;;;;;5061052;28;20979;-78
2021/05/29 06:39:15;;;;;;;8.03;6.50;;;10.90;99.90;;;;;;5085855;28;20250;-79
2021/05/29 06:41:42;;;;;;;10.17;6.83;;;10.90;99.90;;;;;;5051263;28;20288;-78
2021/05/29 06:44:12;;;;;;;10.20;6.40;;;10.80;99.90;;;;;;5050022;28;20230;-78
2021/05/29 06:46:41;;;;;;;8.83;6.43;;;10.80;99.90;;;;;;5049652;28;20242;-79
2021/05/29 06:49:10;;;;;;;10.87;6.13;;;10.90;99.90;;;;;;5049841;28;20764;-78
2021/05/29 06:51:43;;;;;;;5.80;5.20;;;11.00;99.90;;;;;;5059211;28;20244;-79
2021/05/29 06:54:15;;;;;;;10.63;4.93;;;11.00;99.90;;;;;;5067572;28;20245;-78
2021/05/29 06:59:28;;;;;;;8.07;5.40;;;11.00;99.90;;;;;;5062954;28;20236;-79
2021/05/29 07:01:58;;;;;;;8.13;5.53;;;11.10;99.90;;;;;;5042202;28;20324;-79
2021/05/29 07:04:29;;;;;;;8.90;5.37;;;11.00;99.90;;;;;;5048009;28;20256;-79
2021/05/29 07:06:57;;;;;;;8.97;5.73;;;11.00;99.90;;;;;;5041874;28;20247;-79
2021/05/29 07:09:25;;;;;;;6.70;4.70;;;11.00;99.90;;;;;;5046178;28;20548;-79
2021/05/29 07:11:53;;;;;;;5.33;4.67;;;11.00;99.90;;;;;;5037584;28;20296;-79
2021/05/29 07:14:24;;;;;;;6.43;4.63;;;11.00;99.90;;;;;;5051363;28;20230;-86
2021/05/29 07:16:53;;;;;;;7.10;4.67;;;11.00;99.90;;;;;;5049584;28;20242;-86
2021/05/29 07:19:23;;;;;;;8.73;4.73;;;11.00;99.90;;;;;;5061569;28;20323;-78
2021/05/29 07:21:52;;;;;;;9.07;5.60;;;11.20;99.90;;;;;;5038704;28;20253;-81
2021/05/29 07:24:20;;;;;;;9.00;5.67;;;11.20;99.90;;;;;;5044113;28;20235;-82
2021/05/29 07:26:51;;;;;;;9.05;6.40;;;11.10;99.90;;;;;;5044347;28;20533;-79
2021/05/29 07:29:20;;;;;;;9.07;5.47;;;11.30;99.90;;;;;;5042816;28;20658;-79
2021/05/29 07:31:49;;;;;;;6.97;4.90;;;11.40;99.90;;;;;;5057107;28;20248;-79
2021/05/29 07:34:17;;;;;;;7.77;4.93;;;11.40;99.90;;;;;;5043525;28;20238;-79
2021/05/29 07:36:45;;;;;;;7.00;5.33;;;11.40;99.90;;;;;;5045612;28;20311;-79
2021/05/29 07:39:13;;;;;;;8.77;5.87;;;11.40;99.90;;;;;;5056007;28;20238;-79
2021/05/29 07:41:42;;;;;;;8.93;5.30;;;11.40;99.90;;;;;;5049025;28;20245;-80
2021/05/29 07:44:11;;;;;;;10.30;5.80;;;11.30;99.90;;;;;;5048017;28;20718;-80
2021/05/29 07:46:39;;;;;;;9.20;6.00;;;11.30;99.90;;;;;;5073581;28;20246;-79
2021/05/29 07:49:07;;;;;;;9.00;6.33;;;11.30;99.90;;;;;;5069033;28;20240;-79
2021/05/29 07:51:37;;;;;;;6.47;5.70;;;11.30;99.90;;;;;;5060543;28;20237;-79
2021/05/29 07:54:06;;;;;;;6.17;5.43;;;11.30;99.90;;;;;;5068598;28;20242;-79
2021/05/29 07:56:35;;;;;;;9.50;5.90;;;11.30;99.90;;;;;;5053847;28;20781;-78
2021/05/29 07:59:06;;;;;;;7.40;5.30;;;11.40;99.90;;;;;;5048753;28;20947;-78
2021/05/29 08:01:35;;;;;;;6.87;5.37;;;11.40;99.90;;;;;;5044699;28;20746;-79
2021/05/29 08:04:03;;;;;;;7.57;5.50;;;11.30;99.90;;;;;;5046613;28;20712;-79
2021/05/29 08:06:31;;;;;;;8.60;6.30;;;11.40;99.90;;;;;;5067617;28;20242;-79
2021/05/29 08:09:00;;;;;;;8.20;6.03;;;11.30;99.90;;;;;;5050496;28;20323;-78
2021/05/29 08:11:29;;;;;;;7.57;5.80;;;11.30;99.90;;;;;;5050151;28;20372;-79
2021/05/29 08:13:58;;;;;;;7.50;6.03;;;11.30;99.90;;;;;;5047352;28;20325;-78
2021/05/29 08:16:26;;;;;;;6.60;5.50;;;11.30;99.90;;;;;;5055311;28;20244;-79
2021/05/29 08:18:55;;;;;;;8.30;5.77;;;11.30;99.90;;;;;;5052259;28;20748;-78
2021/05/29 08:21:23;;;;;;;6.77;5.13;;;11.30;99.90;;;;;;5047976;28;20246;-78
2021/05/29 08:23:51;;;;;;;8.23;5.40;;;11.40;99.90;;;;;;5046942;28;20735;-78
2021/05/29 08:26:19;;;;;;;8.17;5.20;;;11.40;99.90;;;;;;5053924;28;20290;-79
2021/05/29 08:28:48;;;;;;;6.67;5.40;;;11.40;99.90;;;;;;5067236;28;20311;-79
2021/05/29 08:31:17;;;;;;;6.07;5.47;;;11.40;99.90;;;;;;5056611;28;20263;-78
2021/05/29 08:33:49;;;;;;;6.50;5.80;;;11.40;99.90;;;;;;5066782;28;20243;-79
2021/05/29 08:36:17;;;;;;;7.03;5.50;;;11.50;99.90;;;;;;5047232;28;20843;-79
2021/05/29 08:38:46;;;;;;;7.70;5.10;;;11.60;99.90;;;;;;5047901;28;20589;-79
2021/05/29 08:41:13;;;;;;;5.77;5.10;;;11.80;99.90;;;;;;5047737;28;20241;-80
2021/05/29 08:43:42;;;;;;;8.13;5.90;;;11.80;99.90;;;;;;5045239;28;20241;-79
2021/05/29 08:46:10;;;;;;;7.50;5.73;;;11.70;99.90;;;;;;5067786;28;20293;-79
2021/05/29 08:48:40;;;;;;;8.23;6.00;;;11.70;99.90;;;;;;5067736;28;20245;-79
2021/05/29 08:51:16;;;;;;;7.90;5.57;;;11.70;99.90;;;;;;5059744;28;20237;-79
2021/05/29 08:53:48;;;;;;;7.90;5.67;;;11.70;99.90;;;;;;5047749;28;20244;-79
2021/05/29 08:56:17;;;;;;;9.03;5.73;;;11.70;99.90;;;;;;5054361;28;20648;-78
2021/05/29 08:58:46;;;;;;;8.77;6.13;;;11.70;99.90;;;;;;5068580;28;20708;-78
2021/05/29 09:01:14;;;;;;;8.10;5.70;;;11.80;99.90;;;;;;5052542;28;20238;-78
2021/05/29 09:03:48;;;;;;;7.00;5.60;;;11.80;99.90;;;;;;5053419;28;20730;-78
2021/05/29 09:06:18;;;;;;;9.50;5.63;;;11.70;99.90;;;;;;5053456;28;20736;-78
2021/05/29 09:08:51;;;;;;;10.77;6.23;;;11.70;99.90;;;;;;5053050;28;20340;-79
2021/05/29 09:11:45;;;;;;;6.57;5.73;;;11.70;99.90;;;;;;5047358;28;20252;-78
2021/05/29 09:14:32;;;;;;;9.67;6.17;;;11.90;99.90;;;;;;5046961;28;20599;-78
2021/05/29 09:17:18;;;;;;;8.23;6.40;;;11.90;99.90;;;;;;5059533;28;20334;-78
2021/05/29 09:20:03;;;;;;;7.80;6.37;;;11.90;99.90;;;;;;5062245;28;20246;-79
2021/05/29 09:22:35;;;;;;;12.97;6.47;;;11.90;99.90;;;;;;5061813;28;20729;-79
2021/05/29 09:25:07;;;;;;;8.80;6.03;;;11.80;99.90;;;;;;5046821;28;20231;-79
2021/05/29 09:27:49;;;;;;;7.27;5.53;;;11.90;99.90;;;;;;5045351;28;20743;-79
2021/05/29 09:30:34;;;;;;;9.70;6.03;;;11.80;99.90;;;;;;5045518;28;20279;-79
2021/05/29 09:33:17;;;;;;;7.67;6.27;;;11.80;99.90;;;;;;5056278;28;20239;-79
2021/05/29 09:35:48;;;;;;;10.70;7.37;;;11.80;99.90;;;;;;5047548;28;20247;-79
2021/05/29 09:38:16;;;;;;;8.30;6.30;;;11.70;99.90;;;;;;5047826;28;20243;-79
2021/05/29 09:40:52;;;;;;;7.73;6.40;;;11.70;99.90;;;;;;5049715;28;20261;-79
2021/05/29 09:43:21;;;;;;;10.53;6.47;;;11.70;99.90;;;;;;5067379;28;21016;-80
2021/05/29 09:45:58;;;;;;;10.23;6.43;;;11.80;99.90;;;;;;5050043;28;20602;-80
2021/05/29 09:48:26;;;;;;;9.20;6.17;;;11.80;99.90;;;;;;5047018;28;20632;-79
2021/05/29 09:51:13;;;;;;;8.03;5.90;;;11.90;99.90;;;;;;5051525;28;20762;-79
2021/05/29 09:53:43;;;;;;;6.80;5.87;;;12.00;99.90;;;;;;5062475;28;20248;-79
2021/05/29 09:56:29;;;;;;;8.47;6.00;;;12.10;99.90;;;;;;5037504;28;20242;-79
2021/05/29 09:59:00;;;;;;;7.43;5.63;;;12.10;99.90;;;;;;5051591;28;20244;-79
2021/05/29 10:01:40;;;;;;;7.30;5.80;;;12.20;99.90;;;;;;5052957;28;20275;-79
2021/05/29 10:04:10;;;;;;;8.67;5.73;;;12.20;99.90;;;;;;5058165;28;20327;-79
2021/05/29 10:06:38;;;;;;;7.27;5.20;;;12.20;99.90;;;;;;5069742;28;20262;-79
2021/05/29 10:09:07;;;;;;;6.60;5.50;;;12.30;99.90;;;;;;5049625;28;20297;-79
2021/05/29 10:11:37;;;;;;;6.53;5.30;;;12.40;99.90;;;;;;5046260;28;20245;-79
2021/05/29 10:14:08;;;;;;;7.23;5.10;;;12.40;99.90;;;;;;5039101;28;20237;-79
2021/05/29 10:16:40;;;;;;;5.17;4.50;;;12.60;99.90;;;;;;5060041;28;20776;-79
2021/05/29 10:19:10;;;;;;;6.83;4.93;;;12.70;99.90;;;;;;5054806;28;20265;-79
2021/05/29 10:21:39;;;;;;;7.27;4.60;;;12.80;99.90;;;;;;5062188;28;20274;-80
2021/05/29 10:24:08;;;;;;;6.63;4.87;;;12.80;99.90;;;;;;5030677;28;20773;-79
2021/05/29 10:26:36;;;;;;;7.87;5.00;;;12.70;99.90;;;;;;5047886;28;20326;-79
2021/05/29 10:29:05;;;;;;;5.63;4.67;;;12.80;99.90;;;;;;5049341;28;20239;-79
2021/05/29 10:31:35;;;;;;;4.57;4.03;;;12.70;99.90;;;;;;5053007;28;20679;-79
2021/05/29 10:34:06;;;;;;;7.67;4.87;;;12.80;99.90;;;;;;5049911;28;20320;-80
2021/05/29 10:36:44;;;;;;;5.73;4.53;;;12.80;99.90;;;;;;5059153;28;20321;-80
2021/05/29 10:39:14;;;;;;;6.00;4.70;;;12.80;99.90;;;;;;5070734;28;20579;-80
2021/05/29 10:41:57;;;;;;;6.67;4.60;;;12.90;99.90;;;;;;5066397;28;20243;-79
2021/05/29 10:44:38;;;;;;;6.37;4.80;;;12.90;99.90;;;;;;5064711;28;20291;-79
2021/05/29 10:47:12;;;;;;;4.87;4.10;;;13.00;99.90;;;;;;5050694;28;20238;-79
2021/05/29 10:49:56;;;;;;;5.67;4.07;;;13.10;99.90;;;;;;5049509;28;20239;-79
2021/05/29 10:52:49;;;;;;;4.10;3.70;;;13.10;99.90;;;;;;5065763;28;20241;-80
2021/05/29 10:55:25;;;;;;;4.43;4.00;;;13.20;99.90;;;;;;5052705;28;20246;-83
2021/05/29 10:57:59;;;;;;;5.80;3.93;;;13.50;99.90;;;;;;5065564;28;20600;-79
2021/05/29 11:00:54;;;;;;;4.80;4.07;;;13.70;99.90;;;;;;5047088;28;20231;-80
2021/05/29 11:03:27;;;;;;;7.53;4.10;;;13.70;99.90;;;;;;5041584;28;20263;-81
2021/05/29 11:05:57;;;;;;;4.90;4.40;;;13.50;99.90;;;;;;5053096;28;20635;-81
2021/05/29 11:08:55;;;;;;;6.47;4.83;;;13.50;99.90;;;;;;5041067;28;20632;-80
2021/05/29 11:11:52;;;;;;;5.40;4.67;;;13.50;99.90;;;;;;5049373;28;20309;-80
2021/05/29 11:14:21;;;;;;;5.57;4.73;;;13.50;99.90;;;;;;5048838;28;20243;-81
2021/05/29 11:17:11;;;;;;;5.20;4.70;;;13.40;99.90;;;;;;5060012;28;20238;-80
2021/05/29 11:19:59;;;;;;;6.30;4.90;;;13.30;99.90;;;;;;5060666;28;20307;-81
2021/05/29 11:22:38;;;;;;;5.57;4.80;;;13.30;99.90;;;;;;5056330;28;20273;-81
2021/05/29 11:25:12;;;;;;;5.57;4.87;;;13.40;99.90;;;;;;5045886;28;20234;-79
2021/05/29 11:27:41;;;;;;;6.77;4.87;;;13.50;99.90;;;;;;5047398;28;20242;-80
2021/05/29 11:30:14;;;;;;;6.53;4.80;;;13.40;99.90;;;;;;5049448;28;20243;-80
2021/05/29 11:32:49;;;;;;;6.47;4.93;;;13.50;99.90;;;;;;5039264;28;20254;-80
2021/05/29 11:35:30;;;;;;;6.90;4.90;;;13.40;99.90;;;;;;5039491;28;20248;-81
2021/05/29 11:38:16;;;;;;;5.60;4.77;;;13.40;99.90;;;;;;5049720;28;20242;-80
2021/05/29 11:40:50;;;;;;;7.13;4.97;;;13.60;99.90;;;;;;5048203;28;20715;-80
2021/05/29 11:43:22;;;;;;;7.13;4.67;;;13.60;99.90;;;;;;5048923;28;20234;-80
2021/05/29 11:45:57;;;;;;;7.33;4.90;;;13.60;99.90;;;;;;5048713;28;20255;-80
2021/05/29 11:48:37;;;;;;;8.60;6.00;;;13.60;99.90;;;;;;5042728;28;20242;-80
2021/05/29 11:51:14;;;;;;;6.27;5.07;;;13.50;99.90;;;;;;5047982;28;20287;-80
2021/05/29 11:53:46;;;;;;;7.37;5.00;;;13.50;99.90;;;;;;5060728;28;20242;-80
2021/05/29 11:56:17;;;;;;;6.70;5.57;;;13.60;99.90;;;;;;5049143;28;20239;-80
2021/05/29 11:58:51;;;;;;;9.20;5.30;;;13.60;99.90;;;;;;5051663;28;20243;-81
2021/05/29 12:01:20;;;;;;;6.43;5.27;;;13.60;99.90;;;;;;5055467;28;20296;-81
2021/05/29 12:03:51;;;;;;;8.93;5.50;;;13.70;99.90;;;;;;5034017;28;20262;-80
2021/05/29 12:06:37;;;;;;;7.53;6.00;;;13.80;99.90;;;;;;5042467;28;20257;-81
2021/05/29 12:09:08;;;;;;;6.23;4.83;;;13.80;99.90;;;;;;5041953;28;20235;-80
2021/05/29 12:11:38;;;;;;;8.03;5.10;;;13.70;99.90;;;;;;5046831;28;20265;-82
2021/05/29 12:14:10;;;;;;;11.43;5.40;;;13.80;99.90;;;;;;5040259;28;20250;-81
2021/05/29 12:16:41;;;;;;;6.40;5.23;;;13.80;99.90;;;;;;5041402;28;20239;-80
2021/05/29 12:19:34;;;;;;;8.10;5.20;;;13.80;99.90;;;;;;5035441;28;20236;-80
2021/05/29 12:22:05;;;;;;;7.20;5.00;;;14.00;99.90;;;;;;5044815;28;20238;-84
2021/05/29 12:24:41;;;;;;;7.53;4.90;;;14.00;99.90;;;;;;5037289;28;20287;-80
2021/05/29 12:27:12;;;;;;;6.50;5.23;;;14.00;99.90;;;;;;5045320;28;20238;-81
2021/05/29 12:29:41;;;;;;;5.37;4.73;;;14.00;99.90;;;;;;5034929;28;20294;-80
2021/05/29 12:32:11;;;;;;;5.07;4.57;;;14.20;99.90;;;;;;5040651;28;20250;-80
2021/05/29 12:34:49;;;;;;;5.27;4.77;;;14.40;99.90;;;;;;5032757;28;20266;-85
2021/05/29 12:37:25;;;;;;;5.20;4.40;;;14.40;99.90;;;;;;5044058;28;20239;-85
2021/05/29 12:39:56;;;;;;;8.97;5.30;;;14.40;99.90;;;;;;5030844;28;20242;-84
2021/05/29 12:42:30;;;;;;;5.87;4.60;;;14.50;99.90;;;;;;5045681;28;20315;-85
2021/05/29 12:45:02;;;;;;;6.00;4.97;;;14.50;99.90;;;;;;5046822;28;20268;-85
2021/05/29 12:47:32;;;;;;;7.03;4.80;;;14.40;99.90;;;;;;5044198;28;20742;-86
2021/05/29 12:50:12;;;;;;;5.77;4.73;;;14.40;99.90;;;;;;5048040;28;20231;-86
2021/05/29 12:52:39;;;;;;;6.83;5.00;;;14.40;99.90;;;;;;5069330;28;20313;-85
2021/05/29 12:55:18;;;;;;;6.67;4.80;;;14.40;99.90;;;;;;5047914;28;20231;-85
2021/05/29 12:57:47;;;;;;;6.83;5.23;;;14.30;99.90;;;;;;5047887;28;20242;-86
2021/05/29 13:00:38;;;;;;;5.37;4.23;;;14.40;99.90;;;;;;5048488;28;20234;-81
2021/05/29 13:09:00;;;;;;;6.47;5.00;;;14.90;99.90;;;;;;5043135;28;20247;-79
2021/05/29 13:11:31;;;;;;;5.80;4.60;;;14.90;99.90;;;;;;5053298;28;20227;-79
2021/05/29 13:14:01;;;;;;;9.40;4.70;;;14.90;99.90;;;;;;5028082;28;20241;-79
2021/05/29 13:16:45;;;;;;;6.53;4.37;;;14.90;99.90;;;;;;5051708;28;20245;-79